createdAt,value
2023-03-02T00:03:42.230Z,12.98
2023-03-02T00:08:47.000Z,9.90
2023-03-02T00:13:50.709Z,12.15
2023-03-02T00:18:55.759Z,10.48
2023-03-02T00:23:59.506Z,11.12
2023-03-02T00:29:03.940Z,16.08
2023-03-02T00:34:09.008Z,12.82
2023-03-02T00:39:12.733Z,10.10
2023-03-02T00:44:17.728Z,13.88
2023-03-02T00:49:23.283Z,14.87
2023-03-02T00:54:27.046Z,9.25
2023-03-02T00:59:30.759Z,9.48
2023-03-02T01:04:39.617Z,11.88
2023-03-02T01:09:44.885Z,11.02
2023-03-02T01:14:50.848Z,8.38
2023-03-02T01:19:57.105Z,12.85
2023-03-02T01:25:00.845Z,9.30
2023-03-02T01:30:05.240Z,14.15
2023-03-02T01:35:10.925Z,14.55
2023-03-02T01:40:15.575Z,11.20
2023-03-02T01:45:51.686Z,12.02
2023-03-02T01:50:59.109Z,14.02
2023-03-02T01:56:05.719Z,12.90
2023-03-02T02:01:15.463Z,16.25
2023-03-02T02:06:25.355Z,15.07
2023-03-02T02:11:29.233Z,14.02
2023-03-02T02:16:35.690Z,17.55
2023-03-02T02:21:41.781Z,15.93
2023-03-02T02:26:49.850Z,17.52
2023-03-02T02:37:04.786Z,24.70
2023-03-02T02:42:15.993Z,27.15
2023-03-02T02:47:22.605Z,25.98
2023-03-02T02:52:28.992Z,34.08
2023-03-02T02:57:34.084Z,34.60
2023-03-02T03:02:45.458Z,37.42
2023-03-02T03:07:49.278Z,42.97
2023-03-02T03:12:54.886Z,48.87
2023-03-02T03:17:59.738Z,46.45
2023-03-02T03:23:03.806Z,47.00
2023-03-02T03:28:09.350Z,51.60
2023-03-02T03:33:13.749Z,52.90
2023-03-02T03:38:18.155Z,58.65
2023-03-02T03:43:24.285Z,59.55
2023-03-02T03:48:28.478Z,60.90
2023-03-02T03:53:32.369Z,63.17
2023-03-02T03:58:38.580Z,60.95
2023-03-02T04:03:42.602Z,69.10
2023-03-02T04:08:46.435Z,67.25
2023-03-02T04:13:51.864Z,66.07
2023-03-02T04:18:55.990Z,65.00
2023-03-02T04:23:59.828Z,66.03
2023-03-02T04:29:05.889Z,69.60
2023-03-02T04:34:10.670Z,72.30
2023-03-02T04:39:18.267Z,69.00
2023-03-02T04:44:23.991Z,51.67
2023-03-02T04:49:27.876Z,71.05
2023-03-02T04:54:32.087Z,68.82
2023-03-02T04:59:37.160Z,74.30
2023-03-02T05:04:42.315Z,72.28
2023-03-02T05:09:46.241Z,81.70
2023-03-02T05:14:51.330Z,69.87
2023-03-02T05:19:54.991Z,72.57
2023-03-02T05:24:58.676Z,77.30
2023-03-02T05:30:03.871Z,69.35
2023-03-02T05:35:08.308Z,73.50
2023-03-02T05:40:16.266Z,70.68
2023-03-02T05:50:27.220Z,72.60
2023-03-02T05:55:31.127Z,72.70
2023-03-02T06:00:36.336Z,70.32
2023-03-02T06:05:40.544Z,76.50
2023-03-02T06:10:44.527Z,71.70
2023-03-02T06:15:49.633Z,72.68
2023-03-02T06:20:53.367Z,70.18
2023-03-02T06:25:58.150Z,76.90
2023-03-02T06:31:03.235Z,67.10
2023-03-02T06:36:07.647Z,71.45
2023-03-02T06:41:11.402Z,76.50
2023-03-02T06:46:16.544Z,68.05
2023-03-02T06:51:20.278Z,75.85
2023-03-02T06:56:24.519Z,74.70
2023-03-02T07:01:33.402Z,75.43
2023-03-02T07:06:37.300Z,72.80
2023-03-02T07:11:41.148Z,76.28
2023-03-02T07:16:46.312Z,71.47
2023-03-02T07:21:50.165Z,70.90
2023-03-02T07:26:53.884Z,75.43
2023-03-02T07:32:00.462Z,73.90
2023-03-02T07:37:05.007Z,73.93
2023-03-02T07:42:11.377Z,72.50
2023-03-02T07:47:18.406Z,70.07
2023-03-02T07:52:22.225Z,71.20
2023-03-02T07:57:26.202Z,70.00
2023-03-02T08:02:33.621Z,68.78
2023-03-02T08:07:37.413Z,66.00
2023-03-02T08:12:42.902Z,63.55
2023-03-02T08:17:48.197Z,59.30
2023-03-02T08:22:52.552Z,56.53
2023-03-02T08:27:56.352Z,57.75
2023-03-02T08:33:05.337Z,58.10
2023-03-02T08:38:10.464Z,51.25
2023-03-02T08:43:14.297Z,51.05
2023-03-02T08:48:19.727Z,49.97
2023-03-02T08:53:23.779Z,54.47
2023-03-02T08:58:27.511Z,52.95
2023-03-02T09:03:32.538Z,53.50
2023-03-02T09:08:36.350Z,54.65
2023-03-02T09:13:40.174Z,49.05
2023-03-02T09:18:45.242Z,44.15
2023-03-02T09:23:49.014Z,51.00
2023-03-02T09:28:53.001Z,46.20
2023-03-02T09:33:59.198Z,45.78
2023-03-02T09:39:09.246Z,48.28
2023-03-02T09:44:31.786Z,44.35
2023-03-02T09:49:53.753Z,44.42
2023-03-02T09:54:58.346Z,42.70
2023-03-02T10:00:18.638Z,47.15
2023-03-02T10:05:28.418Z,38.55
2023-03-02T10:10:41.410Z,42.10
2023-03-02T10:15:54.083Z,39.42
2023-03-02T10:21:04.639Z,31.27
2023-03-02T10:26:19.671Z,31.17
2023-03-02T10:31:29.153Z,28.98
2023-03-02T10:36:39.480Z,28.67
2023-03-02T10:41:49.469Z,27.25
2023-03-02T10:46:53.959Z,25.42
2023-03-02T10:52:03.815Z,27.73
2023-03-02T10:57:29.341Z,25.08
2023-03-02T11:02:38.362Z,25.27
2023-03-02T11:07:53.248Z,23.80
2023-03-02T11:12:57.247Z,23.77
2023-03-02T11:18:06.002Z,22.37
2023-03-02T11:23:31.462Z,23.80
2023-03-02T11:28:41.463Z,24.65
2023-03-02T11:34:11.596Z,23.00
2023-03-02T11:39:27.020Z,21.62
2023-03-02T11:44:31.050Z,21.55
2023-03-02T11:49:43.325Z,22.80
2023-03-02T11:54:54.748Z,22.65
2023-03-02T11:59:59.884Z,24.40
2023-03-02T12:05:05.847Z,21.92
2023-03-02T12:10:28.512Z,25.58
2023-03-02T12:15:38.926Z,21.00
2023-03-02T12:20:43.088Z,22.05
2023-03-02T12:25:51.490Z,21.98
2023-03-02T12:31:04.798Z,19.55
2023-03-02T12:36:15.156Z,23.45
2023-03-02T12:41:41.436Z,19.27
2023-03-02T12:46:46.660Z,19.55
2023-03-02T12:51:54.016Z,19.75
2023-03-02T12:57:08.952Z,21.17
2023-03-02T13:02:18.973Z,19.52
2023-03-02T13:07:26.891Z,19.30
2023-03-02T13:12:32.555Z,16.83
2023-03-02T13:17:36.336Z,17.40
2023-03-02T13:22:40.864Z,13.65
2023-03-02T13:27:53.591Z,12.45
2023-03-02T13:33:03.772Z,14.52
2023-03-02T13:38:17.042Z,11.98
2023-03-02T13:43:37.771Z,14.75
2023-03-02T13:48:41.575Z,11.02
2023-03-02T13:53:52.735Z,11.27
2023-03-02T13:58:57.909Z,11.80
2023-03-02T14:04:02.827Z,14.05
2023-03-02T14:09:06.573Z,11.70
2023-03-02T14:14:15.496Z,10.93
2023-03-02T14:19:20.161Z,10.13
2023-03-02T14:24:24.017Z,10.70
2023-03-02T14:29:31.139Z,9.20
2023-03-02T14:34:37.177Z,9.30
2023-03-02T14:39:43.464Z,8.85
2023-03-02T14:44:50.515Z,9.73
2023-03-02T14:49:54.609Z,7.53
2023-03-02T14:55:02.688Z,9.13
2023-03-02T15:00:09.678Z,7.75
2023-03-02T15:05:13.374Z,8.40
2023-03-02T15:10:20.312Z,7.75
2023-03-02T15:15:26.526Z,7.73
2023-03-02T15:20:30.323Z,7.53
2023-03-02T15:25:34.194Z,9.85
2023-03-02T15:30:39.266Z,9.43
2023-03-02T15:35:44.353Z,7.40
2023-03-02T15:40:48.223Z,10.82
2023-03-02T15:45:53.288Z,9.93
2023-03-02T15:50:58.415Z,11.38
2023-03-02T15:56:05.961Z,12.45
2023-03-02T16:01:12.791Z,10.30
2023-03-02T16:06:16.760Z,10.48
2023-03-02T16:11:23.314Z,11.82
2023-03-02T16:16:28.598Z,11.90
2023-03-02T16:21:32.412Z,12.48
2023-03-02T16:26:38.820Z,10.55
2023-03-02T16:31:46.594Z,11.35
2023-03-02T16:36:50.772Z,11.90
2023-03-02T16:41:54.544Z,11.43
2023-03-02T16:46:59.593Z,10.65
2023-03-02T16:52:03.390Z,13.40
2023-03-02T16:57:08.344Z,12.27
2023-03-02T17:02:13.890Z,13.25
2023-03-02T17:07:17.618Z,14.65
2023-03-02T17:12:21.298Z,12.75
2023-03-02T17:17:26.406Z,16.45
2023-03-02T17:22:30.179Z,16.17
2023-03-02T17:27:34.020Z,15.98
2023-03-02T17:32:39.401Z,15.38
2023-03-02T17:37:43.686Z,16.55
2023-03-02T17:42:47.451Z,16.45
2023-03-02T17:47:53.700Z,15.32
2023-03-02T17:52:57.483Z,14.18
2023-03-02T17:58:01.183Z,15.95
2023-03-02T18:03:06.289Z,13.48
2023-03-02T18:08:10.076Z,13.75
2023-03-02T18:13:13.831Z,15.88
2023-03-02T18:18:18.902Z,15.23
2023-03-02T18:23:22.692Z,14.60
2023-03-02T18:28:26.506Z,13.18
2023-03-02T18:33:31.741Z,15.15
2023-03-02T18:38:36.689Z,16.27
2023-03-02T18:43:42.592Z,20.12
2023-03-02T18:48:49.562Z,22.15
2023-03-02T18:53:53.489Z,21.05
2023-03-02T18:58:57.259Z,21.25
2023-03-02T19:04:03.587Z,25.00
2023-03-02T19:09:07.343Z,25.00
2023-03-02T19:14:11.050Z,27.23
2023-03-02T19:19:16.170Z,23.60
2023-03-02T19:24:19.938Z,24.90
2023-03-02T19:29:23.721Z,23.50
2023-03-02T19:34:29.154Z,24.37
2023-03-02T19:39:33.298Z,26.25
2023-03-02T19:44:37.307Z,24.63
2023-03-02T19:49:42.364Z,21.80
2023-03-02T19:54:46.154Z,22.13
2023-03-02T19:59:49.875Z,22.45
2023-03-02T20:04:54.999Z,23.70
2023-03-02T20:09:58.692Z,25.12
2023-03-02T20:15:02.974Z,25.33
2023-03-02T20:20:09.357Z,23.92
2023-03-02T20:25:14.466Z,22.73
2023-03-02T20:30:23.396Z,28.27
2023-03-02T20:35:30.926Z,25.37
2023-03-02T20:40:35.298Z,26.60
2023-03-02T20:45:39.089Z,29.87
2023-03-02T20:50:44.624Z,25.05
2023-03-02T20:55:48.442Z,29.85
2023-03-02T21:00:53.748Z,32.92
2023-03-02T21:05:58.891Z,30.05
2023-03-02T21:11:02.623Z,29.10
2023-03-02T21:16:07.557Z,28.58
2023-03-02T21:21:12.621Z,28.90
2023-03-02T21:26:17.502Z,33.40
2023-03-02T21:31:21.478Z,30.08
2023-03-02T21:36:26.681Z,29.70
2023-03-02T21:41:30.455Z,31.55
2023-03-02T21:46:36.412Z,32.47
2023-03-02T21:51:41.544Z,30.42
2023-03-02T21:56:45.428Z,34.33
2023-03-02T22:01:49.157Z,37.88
2023-03-02T22:06:54.208Z,32.47
2023-03-02T22:11:58.787Z,31.75
2023-03-02T22:17:13.877Z,34.25
2023-03-02T22:22:21.122Z,33.80
2023-03-02T22:27:26.834Z,33.30
2023-03-02T22:32:31.893Z,32.92
2023-03-02T22:37:37.041Z,40.10
2023-03-02T22:42:40.758Z,35.67
2023-03-02T22:47:48.113Z,34.92
2023-03-02T22:52:54.547Z,35.00
2023-03-02T22:57:58.354Z,33.08
2023-03-02T23:03:02.028Z,30.75
2023-03-02T23:08:19.272Z,32.75
2023-03-02T23:13:27.258Z,36.10
2023-03-02T23:18:33.824Z,36.15
2023-03-02T23:23:38.846Z,39.38
2023-03-02T23:28:42.724Z,39.58
2023-03-02T23:33:46.553Z,36.10
2023-03-02T23:38:51.919Z,35.53
2023-03-02T23:43:55.724Z,39.35
2023-03-02T23:48:59.523Z,34.58
2023-03-02T23:54:05.201Z,35.70
2023-03-02T23:59:08.928Z,37.75
